Salem Center, Indiana
Current Conditions -  °F | °C
As of 12:55 AM on Friday 31 Oct 2014 (Local Time) from KANQ Reporting Station
Overcast Overcast  
Wind Chill: 43°   Ceiling: 8000
Heat Index: 43°   Visibility: 10mi
Dew Point: 36°   Wind: 3mph
Humidity: 76%   Direction: 220°SW
Pressure: 30.01"   Gusts: NA
Location:  41.5628°N, 85.1391°W
Report Text: KANQ 310455Z AUTO 22003KT 10SM FEW050 BKN080 OVC100 06/02 A3001 RMK
Loading
Personal Weather Stations






























Interactive Weather Map New forecast layout! Learn more

10-Day Weather Forecast

Advertisements
Track Severe Weather on mobile